sensor_id;sensor_type;location;lat;lon;timestamp;temperature;humidity
3055;DHT22;1537;52.018;8.542;2024-03-23T00:55:28;8.10;99.90
3055;DHT22;1537;52.018;8.542;2024-03-23T00:58:51;8.10;99.90
3055;DHT22;1537;52.018;8.542;2024-03-23T01:02:14;7.90;99.90
3055;DHT22;1537;52.018;8.542;2024-03-23T01:05:37;7.90;99.90
3055;DHT22;1537;52.018;8.542;2024-03-23T01:09:00;7.90;99.90
3055;DHT22;1537;52.018;8.542;2024-03-23T01:12:25;7.90;99.90
3055;DHT22;1537;52.018;8.542;2024-03-23T01:15:48;8.00;99.90
3055;DHT22;1537;52.018;8.542;2024-03-23T01:19:11;8.00;99.90
3055;DHT22;1537;52.018;8.542;2024-03-23T01:22:34;8.00;99.90
3055;DHT22;1537;52.018;8.542;2024-03-23T01:25:57;8.00;99.90
3055;DHT22;1537;52.018;8.542;2024-03-23T01:29:21;8.00;99.90
3055;DHT22;1537;52.018;8.542;2024-03-23T01:32:43;8.00;99.90
3055;DHT22;1537;52.018;8.542;2024-03-23T01:36:06;8.00;99.90
3055;DHT22;1537;52.018;8.542;2024-03-23T01:39:29;8.00;99.90
3055;DHT22;1537;52.018;8.542;2024-03-23T01:42:58;7.90;99.90
3055;DHT22;1537;52.018;8.542;2024-03-23T01:46:25;7.90;99.90
3055;DHT22;1537;52.018;8.542;2024-03-23T01:49:48;7.90;99.90
3055;DHT22;1537;52.018;8.542;2024-03-23T01:53:10;7.90;99.90
3055;DHT22;1537;52.018;8.542;2024-03-23T01:56:33;8.00;99.90
3055;DHT22;1537;52.018;8.542;2024-03-23T01:59:57;8.00;99.90
3055;DHT22;1537;52.018;8.542;2024-03-23T02:03:26;7.90;99.90
3055;DHT22;1537;52.018;8.542;2024-03-23T02:06:49;7.90;99.90
3055;DHT22;1537;52.018;8.542;2024-03-23T02:10:12;7.80;99.90
3055;DHT22;1537;52.018;8.542;2024-03-23T02:13:34;7.70;99.90
3055;DHT22;1537;52.018;8.542;2024-03-23T02:16:57;7.70;99.90
3055;DHT22;1537;52.018;8.542;2024-03-23T02:20:22;7.70;99.90
3055;DHT22;1537;52.018;8.542;2024-03-23T02:23:45;7.70;99.90
3055;DHT22;1537;52.018;8.542;2024-03-23T02:27:08;7.70;99.90
3055;DHT22;1537;52.018;8.542;2024-03-23T02:30:30;7.70;99.90
3055;DHT22;1537;52.018;8.542;2024-03-23T02:33:52;7.80;99.90
3055;DHT22;1537;52.018;8.542;2024-03-23T02:37:15;7.80;99.90
3055;DHT22;1537;52.018;8.542;2024-03-23T02:40:39;7.80;99.90
3055;DHT22;1537;52.018;8.542;2024-03-23T02:44:02;7.80;99.90
3055;DHT22;1537;52.018;8.542;2024-03-23T02:47:24;7.70;99.90
3055;DHT22;1537;52.018;8.542;2024-03-23T02:50:46;7.70;99.90
3055;DHT22;1537;52.018;8.542;2024-03-23T02:54:09;7.60;99.90
3055;DHT22;1537;52.018;8.542;2024-03-23T02:57:34;7.70;99.90
3055;DHT22;1537;52.018;8.542;2024-03-23T03:00:57;7.70;99.90
3055;DHT22;1537;52.018;8.542;2024-03-23T03:04:19;7.70;99.90
3055;DHT22;1537;52.018;8.542;2024-03-23T03:07:42;7.70;99.90
3055;DHT22;1537;52.018;8.542;2024-03-23T03:11:05;7.70;99.90
3055;DHT22;1537;52.018;8.542;2024-03-23T03:14:28;7.80;99.90
3055;DHT22;1537;52.018;8.542;2024-03-23T03:17:51;7.70;99.90
3055;DHT22;1537;52.018;8.542;2024-03-23T03:21:14;7.60;99.90
3055;DHT22;1537;52.018;8.542;2024-03-23T03:24:38;7.60;99.90
3055;DHT22;1537;52.018;8.542;2024-03-23T03:28:04;7.50;99.90
3055;DHT22;1537;52.018;8.542;2024-03-23T03:31:29;7.50;99.90
3055;DHT22;1537;52.018;8.542;2024-03-23T03:34:51;7.50;99.90
3055;DHT22;1537;52.018;8.542;2024-03-23T03:38:13;7.40;99.90
3055;DHT22;1537;52.018;8.542;2024-03-23T03:41:36;7.40;99.90
3055;DHT22;1537;52.018;8.542;2024-03-23T03:44:58;7.40;99.90
3055;DHT22;1537;52.018;8.542;2024-03-23T03:48:22;7.30;99.90
3055;DHT22;1537;52.018;8.542;2024-03-23T03:51:45;7.30;99.90
3055;DHT22;1537;52.018;8.542;2024-03-23T03:55:13;7.20;99.90
3055;DHT22;1537;52.018;8.542;2024-03-23T03:58:38;7.20;99.90
3055;DHT22;1537;52.018;8.542;2024-03-23T04:02:01;7.20;99.90
3055;DHT22;1537;52.018;8.542;2024-03-23T04:05:25;7.10;99.90
3055;DHT22;1537;52.018;8.542;2024-03-23T04:08:47;7.00;99.90
3055;DHT22;1537;52.018;8.542;2024-03-23T04:12:10;7.00;99.90
3055;DHT22;1537;52.018;8.542;2024-03-23T04:15:33;7.00;99.90
3055;DHT22;1537;52.018;8.542;2024-03-23T04:18:56;6.90;99.90
3055;DHT22;1537;52.018;8.542;2024-03-23T04:22:20;6.90;99.90
3055;DHT22;1537;52.018;8.542;2024-03-23T04:25:45;6.80;99.90
3055;DHT22;1537;52.018;8.542;2024-03-23T04:29:08;6.70;99.90
3055;DHT22;1537;52.018;8.542;2024-03-23T04:32:31;6.70;99.90
3055;DHT22;1537;52.018;8.542;2024-03-23T04:35:54;6.60;99.90
3055;DHT22;1537;52.018;8.542;2024-03-23T04:39:19;6.60;99.90
3055;DHT22;1537;52.018;8.542;2024-03-23T04:42:42;6.70;99.90
3055;DHT22;1537;52.018;8.542;2024-03-23T04:46:05;6.60;99.90
3055;DHT22;1537;52.018;8.542;2024-03-23T04:49:28;6.60;99.90
3055;DHT22;1537;52.018;8.542;2024-03-23T04:52:51;6.60;99.90
3055;DHT22;1537;52.018;8.542;2024-03-23T04:56:15;6.60;99.90
3055;DHT22;1537;52.018;8.542;2024-03-23T04:59:38;6.60;99.90
3055;DHT22;1537;52.018;8.542;2024-03-23T05:03:01;6.50;99.90
3055;DHT22;1537;52.018;8.542;2024-03-23T05:06:25;6.60;99.90
3055;DHT22;1537;52.018;8.542;2024-03-23T05:09:48;6.50;99.90
3055;DHT22;1537;52.018;8.542;2024-03-23T05:13:13;6.60;99.90
3055;DHT22;1537;52.018;8.542;2024-03-23T05:16:36;6.60;99.90
3055;DHT22;1537;52.018;8.542;2024-03-23T05:19:57;6.60;99.90
3055;DHT22;1537;52.018;8.542;2024-03-23T05:23:20;6.60;99.90
3055;DHT22;1537;52.018;8.542;2024-03-23T05:26:43;6.60;99.90
3055;DHT22;1537;52.018;8.542;2024-03-23T05:30:09;6.60;99.90
3055;DHT22;1537;52.018;8.542;2024-03-23T05:33:31;6.70;99.90
3055;DHT22;1537;52.018;8.542;2024-03-23T05:36:54;6.60;99.90
3055;DHT22;1537;52.018;8.542;2024-03-23T05:40:16;6.60;99.90
3055;DHT22;1537;52.018;8.542;2024-03-23T05:43:38;6.60;99.90
3055;DHT22;1537;52.018;8.542;2024-03-23T05:47:03;6.70;99.90
3055;DHT22;1537;52.018;8.542;2024-03-23T05:50:26;6.70;99.90
3055;DHT22;1537;52.018;8.542;2024-03-23T05:53:48;6.70;99.90
3055;DHT22;1537;52.018;8.542;2024-03-23T05:57:12;6.70;99.90
3055;DHT22;1537;52.018;8.542;2024-03-23T06:00:35;6.70;99.90
3055;DHT22;1537;52.018;8.542;2024-03-23T06:03:59;6.60;99.90
3055;DHT22;1537;52.018;8.542;2024-03-23T06:07:22;6.60;99.90
3055;DHT22;1537;52.018;8.542;2024-03-23T06:10:45;6.70;99.90
3055;DHT22;1537;52.018;8.542;2024-03-23T06:14:08;6.70;99.90
3055;DHT22;1537;52.018;8.542;2024-03-23T06:17:31;6.70;99.90
3055;DHT22;1537;52.018;8.542;2024-03-23T06:20:56;6.80;99.90
3055;DHT22;1537;52.018;8.542;2024-03-23T06:24:19;6.90;99.90
3055;DHT22;1537;52.018;8.542;2024-03-23T06:27:41;6.90;99.90
3055;DHT22;1537;52.018;8.542;2024-03-23T06:31:08;7.00;99.90
3055;DHT22;1537;52.018;8.542;2024-03-23T06:34:32;7.10;99.90
3055;DHT22;1537;52.018;8.542;2024-03-23T06:37:56;7.00;99.90
3055;DHT22;1537;52.018;8.542;2024-03-23T06:41:20;7.10;99.90
3055;DHT22;1537;52.018;8.542;2024-03-23T06:44:44;7.10;99.90
3055;DHT22;1537;52.018;8.542;2024-03-23T06:48:08;7.20;99.90
3055;DHT22;1537;52.018;8.542;2024-03-23T06:51:31;7.20;99.90
3055;DHT22;1537;52.018;8.542;2024-03-23T06:54:54;7.30;99.90
3055;DHT22;1537;52.018;8.542;2024-03-23T06:58:19;7.40;99.90
3055;DHT22;1537;52.018;8.542;2024-03-23T07:01:41;7.50;99.90
3055;DHT22;1537;52.018;8.542;2024-03-23T07:05:06;7.50;99.90
3055;DHT22;1537;52.018;8.542;2024-03-23T07:08:29;7.70;99.90
3055;DHT22;1537;52.018;8.542;2024-03-23T07:11:55;8.10;99.90
3055;DHT22;1537;52.018;8.542;2024-03-23T07:15:16;8.20;99.90
3055;DHT22;1537;52.018;8.542;2024-03-23T07:18:40;8.00;99.90
3055;DHT22;1537;52.018;8.542;2024-03-23T07:22:02;7.90;99.90
3055;DHT22;1537;52.018;8.542;2024-03-23T07:25:25;8.00;99.90
3055;DHT22;1537;52.018;8.542;2024-03-23T07:28:51;8.10;99.90
3055;DHT22;1537;52.018;8.542;2024-03-23T07:32:16;8.60;99.90
3055;DHT22;1537;52.018;8.542;2024-03-23T07:35:39;8.90;99.90
3055;DHT22;1537;52.018;8.542;2024-03-23T07:39:02;8.80;99.90
3055;DHT22;1537;52.018;8.542;2024-03-23T07:42:26;8.50;99.90
3055;DHT22;1537;52.018;8.542;2024-03-23T07:45:54;9.20;99.90
3055;DHT22;1537;52.018;8.542;2024-03-23T07:49:15;9.70;99.90
3055;DHT22;1537;52.018;8.542;2024-03-23T07:52:39;9.50;99.90
3055;DHT22;1537;52.018;8.542;2024-03-23T07:56:02;9.20;99.90
3055;DHT22;1537;52.018;8.542;2024-03-23T07:59:26;8.80;99.90
3055;DHT22;1537;52.018;8.542;2024-03-23T08:02:52;8.50;99.90
3055;DHT22;1537;52.018;8.542;2024-03-23T08:06:16;8.30;99.90
3055;DHT22;1537;52.018;8.542;2024-03-23T08:09:41;8.80;99.90
3055;DHT22;1537;52.018;8.542;2024-03-23T08:13:04;9.50;99.90
3055;DHT22;1537;52.018;8.542;2024-03-23T08:16:28;10.10;99.90
3055;DHT22;1537;52.018;8.542;2024-03-23T08:19:53;10.20;99.90
3055;DHT22;1537;52.018;8.542;2024-03-23T08:23:17;10.50;99.90
3055;DHT22;1537;52.018;8.542;2024-03-23T08:26:39;10.70;99.90
3055;DHT22;1537;52.018;8.542;2024-03-23T08:30:02;10.90;99.90
3055;DHT22;1537;52.018;8.542;2024-03-23T08:33:26;11.10;99.90
3055;DHT22;1537;52.018;8.542;2024-03-23T08:36:51;10.80;99.90
3055;DHT22;1537;52.018;8.542;2024-03-23T08:40:18;11.10;99.90
3055;DHT22;1537;52.018;8.542;2024-03-23T08:43:41;11.30;99.90
3055;DHT22;1537;52.018;8.542;2024-03-23T08:47:05;10.60;99.90
3055;DHT22;1537;52.018;8.542;2024-03-23T08:50:29;11.00;99.90
3055;DHT22;1537;52.018;8.542;2024-03-23T08:53:53;11.40;99.90
3055;DHT22;1537;52.018;8.542;2024-03-23T08:57:17;11.80;99.90
3055;DHT22;1537;52.018;8.542;2024-03-23T09:00:40;10.80;99.90
3055;DHT22;1537;52.018;8.542;2024-03-23T09:04:03;10.30;99.90
3055;DHT22;1537;52.018;8.542;2024-03-23T09:07:26;11.10;99.90
3055;DHT22;1537;52.018;8.542;2024-03-23T09:10:51;12.20;99.90
3055;DHT22;1537;52.018;8.542;2024-03-23T09:14:14;11.80;99.90
3055;DHT22;1537;52.018;8.542;2024-03-23T09:17:37;11.20;99.90
3055;DHT22;1537;52.018;8.542;2024-03-23T09:21:03;10.80;99.90
3055;DHT22;1537;52.018;8.542;2024-03-23T09:24:26;10.90;99.90
3055;DHT22;1537;52.018;8.542;2024-03-23T09:27:51;10.50;99.90
3055;DHT22;1537;52.018;8.542;2024-03-23T09:31:14;10.20;99.90
3055;DHT22;1537;52.018;8.542;2024-03-23T09:34:37;9.80;99.90
3055;DHT22;1537;52.018;8.542;2024-03-23T09:38:00;9.60;99.90
3055;DHT22;1537;52.018;8.542;2024-03-23T09:41:22;9.10;99.90
3055;DHT22;1537;52.018;8.542;2024-03-23T09:44:48;8.80;99.90
3055;DHT22;1537;52.018;8.542;2024-03-23T09:48:13;8.70;99.90
3055;DHT22;1537;52.018;8.542;2024-03-23T09:51:36;8.70;99.90
3055;DHT22;1537;52.018;8.542;2024-03-23T09:55:03;9.60;99.90
3055;DHT22;1537;52.018;8.542;2024-03-23T09:58:25;12.70;99.90
3055;DHT22;1537;52.018;8.542;2024-03-23T10:01:49;15.20;99.90
3055;DHT22;1537;52.018;8.542;2024-03-23T10:05:20;15.30;99.90
3055;DHT22;1537;52.018;8.542;2024-03-23T10:08:44;13.70;99.90
3055;DHT22;1537;52.018;8.542;2024-03-23T10:12:10;12.60;99.90
3055;DHT22;1537;52.018;8.542;2024-03-23T10:15:34;11.60;99.90
3055;DHT22;1537;52.018;8.542;2024-03-23T10:18:59;10.70;99.90
3055;DHT22;1537;52.018;8.542;2024-03-23T10:22:22;10.20;99.90
3055;DHT22;1537;52.018;8.542;2024-03-23T10:25:45;10.90;99.90
3055;DHT22;1537;52.018;8.542;2024-03-23T10:29:08;10.90;99.90
3055;DHT22;1537;52.018;8.542;2024-03-23T10:32:32;10.50;99.90
3055;DHT22;1537;52.018;8.542;2024-03-23T10:35:57;11.10;99.90
3055;DHT22;1537;52.018;8.542;2024-03-23T10:39:20;11.50;99.90
3055;DHT22;1537;52.018;8.542;2024-03-23T10:42:44;12.30;99.90
3055;DHT22;1537;52.018;8.542;2024-03-23T10:46:06;12.10;99.90
3055;DHT22;1537;52.018;8.542;2024-03-23T10:49:31;12.50;99.90
3055;DHT22;1537;52.018;8.542;2024-03-23T10:52:56;12.40;99.90
3055;DHT22;1537;52.018;8.542;2024-03-23T10:56:21;11.80;99.90
3055;DHT22;1537;52.018;8.542;2024-03-23T10:59:44;12.60;99.90
3055;DHT22;1537;52.018;8.542;2024-03-23T11:03:35;13.30;99.90
3055;DHT22;1537;52.018;8.542;2024-03-23T11:06:58;12.90;99.90
3055;DHT22;1537;52.018;8.542;2024-03-23T11:10:27;13.30;99.90
3055;DHT22;1537;52.018;8.542;2024-03-23T11:13:52;13.20;99.90
3055;DHT22;1537;52.018;8.542;2024-03-23T11:17:18;13.10;99.90
3055;DHT22;1537;52.018;8.542;2024-03-23T11:20:41;12.50;99.90
3055;DHT22;1537;52.018;8.542;2024-03-23T11:24:13;12.20;99.90
3055;DHT22;1537;52.018;8.542;2024-03-23T11:27:36;12.00;99.90
3055;DHT22;1537;52.018;8.542;2024-03-23T11:30:59;12.10;99.90
3055;DHT22;1537;52.018;8.542;2024-03-23T11:34:22;11.70;99.90
3055;DHT22;1537;52.018;8.542;2024-03-23T11:37:45;10.70;99.90
3055;DHT22;1537;52.018;8.542;2024-03-23T11:41:07;10.40;99.90
3055;DHT22;1537;52.018;8.542;2024-03-23T11:44:31;9.90;99.90
3055;DHT22;1537;52.018;8.542;2024-03-23T11:48:06;9.80;99.90
3055;DHT22;1537;52.018;8.542;2024-03-23T11:51:29;9.80;99.90
3055;DHT22;1537;52.018;8.542;2024-03-23T11:55:03;9.70;99.90
3055;DHT22;1537;52.018;8.542;2024-03-23T11:58:26;9.50;99.90
3055;DHT22;1537;52.018;8.542;2024-03-23T12:01:50;9.60;99.90
3055;DHT22;1537;52.018;8.542;2024-03-23T12:05:16;9.80;99.90
3055;DHT22;1537;52.018;8.542;2024-03-23T12:08:38;9.80;99.90
3055;DHT22;1537;52.018;8.542;2024-03-23T12:12:07;9.70;99.90
3055;DHT22;1537;52.018;8.542;2024-03-23T12:15:28;9.80;99.90
3055;DHT22;1537;52.018;8.542;2024-03-23T12:18:53;10.00;99.90
3055;DHT22;1537;52.018;8.542;2024-03-23T12:22:20;10.40;99.90
3055;DHT22;1537;52.018;8.542;2024-03-23T12:25:48;10.30;99.90
3055;DHT22;1537;52.018;8.542;2024-03-23T12:29:11;10.40;99.90
3055;DHT22;1537;52.018;8.542;2024-03-23T12:32:34;10.40;99.90
3055;DHT22;1537;52.018;8.542;2024-03-23T12:35:58;10.50;99.90
3055;DHT22;1537;52.018;8.542;2024-03-23T12:39:21;10.00;99.90
3055;DHT22;1537;52.018;8.542;2024-03-23T12:42:42;9.70;99.90
3055;DHT22;1537;52.018;8.542;2024-03-23T12:46:05;9.50;99.90
3055;DHT22;1537;52.018;8.542;2024-03-23T12:49:29;9.40;99.90
3055;DHT22;1537;52.018;8.542;2024-03-23T12:52:54;9.30;99.90
3055;DHT22;1537;52.018;8.542;2024-03-23T12:56:15;9.10;99.90
3055;DHT22;1537;52.018;8.542;2024-03-23T12:59:39;9.40;99.90
3055;DHT22;1537;52.018;8.542;2024-03-23T13:03:05;9.50;99.90
3055;DHT22;1537;52.018;8.542;2024-03-23T13:06:29;9.80;99.90
3055;DHT22;1537;52.018;8.542;2024-03-23T13:10:00;10.00;99.90
3055;DHT22;1537;52.018;8.542;2024-03-23T13:13:23;10.30;99.90
3055;DHT22;1537;52.018;8.542;2024-03-23T13:16:49;10.30;99.90
3055;DHT22;1537;52.018;8.542;2024-03-23T13:20:11;10.30;99.90
3055;DHT22;1537;52.018;8.542;2024-03-23T13:23:36;10.20;99.90
3055;DHT22;1537;52.018;8.542;2024-03-23T13:27:05;10.60;99.90
3055;DHT22;1537;52.018;8.542;2024-03-23T13:30:29;10.60;99.90
3055;DHT22;1537;52.018;8.542;2024-03-23T13:33:53;10.10;99.90
3055;DHT22;1537;52.018;8.542;2024-03-23T13:37:18;9.60;99.90
3055;DHT22;1537;52.018;8.542;2024-03-23T13:40:51;9.10;99.90
3055;DHT22;1537;52.018;8.542;2024-03-23T13:44:15;9.10;99.90
3055;DHT22;1537;52.018;8.542;2024-03-23T13:47:38;9.20;99.90
3055;DHT22;1537;52.018;8.542;2024-03-23T13:51:03;9.10;99.90
3055;DHT22;1537;52.018;8.542;2024-03-23T13:54:28;8.80;99.90
3055;DHT22;1537;52.018;8.542;2024-03-23T13:57:52;8.50;99.90
3055;DHT22;1537;52.018;8.542;2024-03-23T14:01:16;8.60;99.90
3055;DHT22;1537;52.018;8.542;2024-03-23T14:04:42;9.00;99.90
3055;DHT22;1537;52.018;8.542;2024-03-23T14:08:05;9.40;99.90
3055;DHT22;1537;52.018;8.542;2024-03-23T14:11:27;9.60;99.90
3055;DHT22;1537;52.018;8.542;2024-03-23T14:14:50;9.70;99.90
3055;DHT22;1537;52.018;8.542;2024-03-23T14:18:15;9.60;99.90
3055;DHT22;1537;52.018;8.542;2024-03-23T14:21:37;9.50;99.90
3055;DHT22;1537;52.018;8.542;2024-03-23T14:25:00;9.30;99.90
3055;DHT22;1537;52.018;8.542;2024-03-23T14:28:22;9.30;99.90
3055;DHT22;1537;52.018;8.542;2024-03-23T14:31:45;8.90;99.90
3055;DHT22;1537;52.018;8.542;2024-03-23T14:35:10;7.90;99.90
3055;DHT22;1537;52.018;8.542;2024-03-23T14:38:33;7.40;99.90
3055;DHT22;1537;52.018;8.542;2024-03-23T14:41:56;7.20;99.90
3055;DHT22;1537;52.018;8.542;2024-03-23T14:45:18;7.10;99.90
3055;DHT22;1537;52.018;8.542;2024-03-23T14:48:41;7.20;99.90
3055;DHT22;1537;52.018;8.542;2024-03-23T14:52:05;7.50;99.90
3055;DHT22;1537;52.018;8.542;2024-03-23T14:55:27;7.60;99.90
3055;DHT22;1537;52.018;8.542;2024-03-23T14:58:52;7.60;99.90
3055;DHT22;1537;52.018;8.542;2024-03-23T15:02:15;7.50;99.90
3055;DHT22;1537;52.018;8.542;2024-03-23T15:05:37;7.30;99.90
3055;DHT22;1537;52.018;8.542;2024-03-23T15:09:01;7.00;99.90
3055;DHT22;1537;52.018;8.542;2024-03-23T15:12:28;6.70;99.90
3055;DHT22;1537;52.018;8.542;2024-03-23T15:15:51;6.60;99.90
3055;DHT22;1537;52.018;8.542;2024-03-23T15:19:14;6.70;99.90
3055;DHT22;1537;52.018;8.542;2024-03-23T15:22:36;7.00;99.90
3055;DHT22;1537;52.018;8.542;2024-03-23T15:26:01;7.40;99.90
3055;DHT22;1537;52.018;8.542;2024-03-23T15:29:23;7.70;99.90
3055;DHT22;1537;52.018;8.542;2024-03-23T15:32:47;7.80;99.90
3055;DHT22;1537;52.018;8.542;2024-03-23T15:36:09;8.00;99.90
3055;DHT22;1537;52.018;8.542;2024-03-23T15:39:34;8.20;99.90
3055;DHT22;1537;52.018;8.542;2024-03-23T15:42:59;8.30;99.90
3055;DHT22;1537;52.018;8.542;2024-03-23T15:46:22;8.20;99.90
3055;DHT22;1537;52.018;8.542;2024-03-23T15:49:43;8.30;99.90
3055;DHT22;1537;52.018;8.542;2024-03-23T15:53:07;8.30;99.90
3055;DHT22;1537;52.018;8.542;2024-03-23T15:56:29;8.30;99.90
3055;DHT22;1537;52.018;8.542;2024-03-23T15:59:53;8.30;99.90
3055;DHT22;1537;52.018;8.542;2024-03-23T16:03:15;8.20;99.90
3055;DHT22;1537;52.018;8.542;2024-03-23T16:06:38;8.30;99.90
3055;DHT22;1537;52.018;8.542;2024-03-23T16:10:06;8.30;99.90
3055;DHT22;1537;52.018;8.542;2024-03-23T16:13:31;8.20;99.90
3055;DHT22;1537;52.018;8.542;2024-03-23T16:16:55;8.20;99.90
3055;DHT22;1537;52.018;8.542;2024-03-23T16:20:18;8.20;99.90
3055;DHT22;1537;52.018;8.542;2024-03-23T16:23:42;8.30;99.90
3055;DHT22;1537;52.018;8.542;2024-03-23T16:27:06;8.30;99.90
3055;DHT22;1537;52.018;8.542;2024-03-23T16:30:28;8.30;99.90
3055;DHT22;1537;52.018;8.542;2024-03-23T16:33:52;8.10;99.90
3055;DHT22;1537;52.018;8.542;2024-03-23T16:37:15;8.00;99.90
3055;DHT22;1537;52.018;8.542;2024-03-23T16:40:37;8.00;99.90
3055;DHT22;1537;52.018;8.542;2024-03-23T16:44:00;7.80;99.90
3055;DHT22;1537;52.018;8.542;2024-03-23T16:47:23;7.60;99.90
3055;DHT22;1537;52.018;8.542;2024-03-23T16:50:46;7.50;99.90
3055;DHT22;1537;52.018;8.542;2024-03-23T16:54:09;7.40;99.90
3055;DHT22;1537;52.018;8.542;2024-03-23T16:57:32;7.40;99.90
3055;DHT22;1537;52.018;8.542;2024-03-23T17:00:54;7.50;99.90
3055;DHT22;1537;52.018;8.542;2024-03-23T17:04:18;7.40;99.90
3055;DHT22;1537;52.018;8.542;2024-03-23T17:07:42;7.20;99.90
3055;DHT22;1537;52.018;8.542;2024-03-23T17:11:06;7.10;99.90
3055;DHT22;1537;52.018;8.542;2024-03-23T17:14:27;7.10;99.90
3055;DHT22;1537;52.018;8.542;2024-03-23T17:17:50;7.10;99.90
3055;DHT22;1537;52.018;8.542;2024-03-23T17:21:14;7.10;99.90
3055;DHT22;1537;52.018;8.542;2024-03-23T17:24:39;7.10;99.90
3055;DHT22;1537;52.018;8.542;2024-03-23T17:28:00;7.10;99.90
3055;DHT22;1537;52.018;8.542;2024-03-23T17:31:23;7.20;99.90
3055;DHT22;1537;52.018;8.542;2024-03-23T17:34:46;7.20;99.90
3055;DHT22;1537;52.018;8.542;2024-03-23T17:38:08;7.20;99.90
3055;DHT22;1537;52.018;8.542;2024-03-23T17:41:32;7.10;99.90
3055;DHT22;1537;52.018;8.542;2024-03-23T17:44:55;7.10;99.90
3055;DHT22;1537;52.018;8.542;2024-03-23T17:48:17;7.20;99.90
3055;DHT22;1537;52.018;8.542;2024-03-23T17:51:40;7.30;99.90
3055;DHT22;1537;52.018;8.542;2024-03-23T17:55:03;7.30;99.90
3055;DHT22;1537;52.018;8.542;2024-03-23T17:58:27;7.20;99.90
3055;DHT22;1537;52.018;8.542;2024-03-23T18:01:50;7.10;99.90
3055;DHT22;1537;52.018;8.542;2024-03-23T18:05:13;7.10;99.90
3055;DHT22;1537;52.018;8.542;2024-03-23T18:08:41;6.90;99.90
3055;DHT22;1537;52.018;8.542;2024-03-23T18:12:04;6.90;99.90
3055;DHT22;1537;52.018;8.542;2024-03-23T18:15:29;6.80;99.90
3055;DHT22;1537;52.018;8.542;2024-03-23T18:18:51;6.70;99.90
3055;DHT22;1537;52.018;8.542;2024-03-23T18:22:14;6.70;99.90
3055;DHT22;1537;52.018;8.542;2024-03-23T18:25:36;6.70;99.90
3055;DHT22;1537;52.018;8.542;2024-03-23T18:28:59;6.60;99.90
3055;DHT22;1537;52.018;8.542;2024-03-23T18:32:23;6.40;99.90
3055;DHT22;1537;52.018;8.542;2024-03-23T18:35:49;6.20;99.90
3055;DHT22;1537;52.018;8.542;2024-03-23T18:39:12;6.20;99.90
3055;DHT22;1537;52.018;8.542;2024-03-23T18:42:35;6.20;99.90
3055;DHT22;1537;52.018;8.542;2024-03-23T18:45:56;6.00;99.90
3055;DHT22;1537;52.018;8.542;2024-03-23T18:49:21;5.90;99.90
3055;DHT22;1537;52.018;8.542;2024-03-23T18:52:43;5.80;99.90
3055;DHT22;1537;52.018;8.542;2024-03-23T18:56:08;5.70;99.90
3055;DHT22;1537;52.018;8.542;2024-03-23T18:59:31;5.60;99.90
3055;DHT22;1537;52.018;8.542;2024-03-23T19:02:53;5.60;99.90
3055;DHT22;1537;52.018;8.542;2024-03-23T19:06:17;5.50;99.90
3055;DHT22;1537;52.018;8.542;2024-03-23T19:09:40;5.50;99.90
3055;DHT22;1537;52.018;8.542;2024-03-23T19:13:03;5.40;99.90
3055;DHT22;1537;52.018;8.542;2024-03-23T19:16:26;5.30;99.90
3055;DHT22;1537;52.018;8.542;2024-03-23T19:19:49;5.30;99.90
3055;DHT22;1537;52.018;8.542;2024-03-23T19:23:13;5.30;99.90
3055;DHT22;1537;52.018;8.542;2024-03-23T19:26:35;5.20;99.90
3055;DHT22;1537;52.018;8.542;2024-03-23T19:29:57;5.20;99.90
3055;DHT22;1537;52.018;8.542;2024-03-23T19:33:20;5.20;99.90
3055;DHT22;1537;52.018;8.542;2024-03-23T19:36:43;5.20;99.90
3055;DHT22;1537;52.018;8.542;2024-03-23T19:40:07;5.20;99.90
3055;DHT22;1537;52.018;8.542;2024-03-23T19:43:30;5.20;99.90
3055;DHT22;1537;52.018;8.542;2024-03-23T19:46:52;5.30;99.90
3055;DHT22;1537;52.018;8.542;2024-03-23T19:50:15;5.30;99.90
3055;DHT22;1537;52.018;8.542;2024-03-23T19:53:36;5.30;99.90
3055;DHT22;1537;52.018;8.542;2024-03-23T19:57:00;5.30;99.90
3055;DHT22;1537;52.018;8.542;2024-03-23T20:00:22;5.20;99.90
3055;DHT22;1537;52.018;8.542;2024-03-23T20:03:45;5.10;99.90
3055;DHT22;1537;52.018;8.542;2024-03-23T20:07:08;5.10;99.90
3055;DHT22;1537;52.018;8.542;2024-03-23T20:10:29;5.00;99.90
3055;DHT22;1537;52.018;8.542;2024-03-23T20:13:54;4.90;99.90
3055;DHT22;1537;52.018;8.542;2024-03-23T20:17:17;4.80;99.90
3055;DHT22;1537;52.018;8.542;2024-03-23T20:20:40;4.80;99.90
3055;DHT22;1537;52.018;8.542;2024-03-23T20:24:01;4.70;99.90
3055;DHT22;1537;52.018;8.542;2024-03-23T20:27:25;4.70;99.90
3055;DHT22;1537;52.018;8.542;2024-03-23T20:30:56;4.60;99.90
3055;DHT22;1537;52.018;8.542;2024-03-23T20:34:19;4.50;99.90
3055;DHT22;1537;52.018;8.542;2024-03-23T20:37:42;4.50;99.90
3055;DHT22;1537;52.018;8.542;2024-03-23T20:41:04;4.50;99.90
3055;DHT22;1537;52.018;8.542;2024-03-23T20:44:27;4.40;99.90
3055;DHT22;1537;52.018;8.542;2024-03-23T20:47:51;4.40;99.90
3055;DHT22;1537;52.018;8.542;2024-03-23T20:51:13;4.40;99.90
3055;DHT22;1537;52.018;8.542;2024-03-23T20:54:36;4.40;99.90
3055;DHT22;1537;52.018;8.542;2024-03-23T20:57:59;4.50;99.90
3055;DHT22;1537;52.018;8.542;2024-03-23T21:01:21;4.50;99.90
3055;DHT22;1537;52.018;8.542;2024-03-23T21:04:45;4.40;99.90
3055;DHT22;1537;52.018;8.542;2024-03-23T21:08:08;4.40;99.90
3055;DHT22;1537;52.018;8.542;2024-03-23T21:11:31;4.40;99.90
3055;DHT22;1537;52.018;8.542;2024-03-23T21:14:53;4.50;99.90
3055;DHT22;1537;52.018;8.542;2024-03-23T21:18:16;4.50;99.90
3055;DHT22;1537;52.018;8.542;2024-03-23T21:21:41;4.60;99.90
3055;DHT22;1537;52.018;8.542;2024-03-23T21:25:04;4.60;99.90
3055;DHT22;1537;52.018;8.542;2024-03-23T21:28:26;4.70;99.90
3055;DHT22;1537;52.018;8.542;2024-03-23T21:31:49;4.70;99.90
3055;DHT22;1537;52.018;8.542;2024-03-23T21:35:11;4.80;99.90
3055;DHT22;1537;52.018;8.542;2024-03-23T21:38:35;4.80;99.90
3055;DHT22;1537;52.018;8.542;2024-03-23T21:41:57;4.80;99.90
3055;DHT22;1537;52.018;8.542;2024-03-23T21:45:20;4.80;99.90
3055;DHT22;1537;52.018;8.542;2024-03-23T21:48:48;4.90;99.90
3055;DHT22;1537;52.018;8.542;2024-03-23T21:52:11;4.80;99.90
3055;DHT22;1537;52.018;8.542;2024-03-23T21:55:35;4.80;99.90
3055;DHT22;1537;52.018;8.542;2024-03-23T21:58:58;4.80;99.90
3055;DHT22;1537;52.018;8.542;2024-03-23T22:02:21;4.80;99.90
3055;DHT22;1537;52.018;8.542;2024-03-23T22:05:44;4.80;99.90
3055;DHT22;1537;52.018;8.542;2024-03-23T22:09:07;4.80;99.90
3055;DHT22;1537;52.018;8.542;2024-03-23T22:12:31;4.80;99.90
3055;DHT22;1537;52.018;8.542;2024-03-23T22:15:57;4.80;99.90
3055;DHT22;1537;52.018;8.542;2024-03-23T22:19:20;4.80;99.90
3055;DHT22;1537;52.018;8.542;2024-03-23T22:22:43;4.80;99.90
3055;DHT22;1537;52.018;8.542;2024-03-23T22:26:05;4.80;99.90
3055;DHT22;1537;52.018;8.542;2024-03-23T22:29:29;4.80;99.90
3055;DHT22;1537;52.018;8.542;2024-03-23T22:32:51;4.80;99.90
3055;DHT22;1537;52.018;8.542;2024-03-23T22:36:18;4.80;99.90
3055;DHT22;1537;52.018;8.542;2024-03-23T22:39:41;4.80;99.90
3055;DHT22;1537;52.018;8.542;2024-03-23T22:43:03;4.80;99.90
3055;DHT22;1537;52.018;8.542;2024-03-23T22:46:27;4.80;99.90
3055;DHT22;1537;52.018;8.542;2024-03-23T22:49:51;4.80;99.90
3055;DHT22;1537;52.018;8.542;2024-03-23T22:53:13;4.90;99.90
3055;DHT22;1537;52.018;8.542;2024-03-23T22:56:36;4.90;99.90
3055;DHT22;1537;52.018;8.542;2024-03-23T22:59:58;4.90;99.90
3055;DHT22;1537;52.018;8.542;2024-03-23T23:03:23;4.80;99.90
3055;DHT22;1537;52.018;8.542;2024-03-23T23:06:48;4.60;99.90
3055;DHT22;1537;52.018;8.542;2024-03-23T23:10:12;4.60;99.90
3055;DHT22;1537;52.018;8.542;2024-03-23T23:13:35;4.50;99.90
3055;DHT22;1537;52.018;8.542;2024-03-23T23:16:58;4.40;99.90
3055;DHT22;1537;52.018;8.542;2024-03-23T23:20:22;4.50;99.90